createdAt,value
2018-05-14T00:00:30.491Z,17.50
2018-05-14T00:01:37.308Z,17.60
2018-05-14T00:02:47.394Z,18.30
2018-05-14T00:03:51.361Z,18.70
2018-05-14T00:04:58.395Z,17.50
2018-05-14T00:06:05.155Z,16.30
2018-05-14T00:07:12.126Z,17.70
2018-05-14T00:08:19.179Z,17.50
2018-05-14T00:09:26.072Z,16.90
2018-05-14T00:10:33.151Z,16.60
2018-05-14T00:11:40.442Z,17.80
2018-05-14T00:12:46.720Z,17.90
2018-05-14T00:13:54.172Z,17.30
2018-05-14T00:15:00.465Z,16.50
2018-05-14T00:16:07.425Z,18.00
2018-05-14T00:17:14.236Z,17.20
2018-05-14T00:18:21.955Z,17.10
2018-05-14T00:19:28.311Z,17.30
2018-05-14T00:20:35.168Z,18.00
2018-05-14T00:21:44.087Z,17.70
2018-05-14T00:22:49.037Z,16.90
2018-05-14T00:23:55.859Z,18.10
2018-05-14T00:25:02.709Z,18.30
2018-05-14T00:26:09.748Z,17.30
2018-05-14T00:27:16.610Z,17.30
2018-05-14T00:28:27.240Z,18.60
2018-05-14T00:29:30.403Z,19.30
2018-05-14T00:30:37.195Z,17.50
2018-05-14T00:31:45.187Z,17.50
2018-05-14T00:32:51.288Z,17.30
2018-05-14T00:33:58.140Z,18.10
2018-05-14T00:35:04.932Z,17.90
2018-05-14T00:36:11.804Z,18.00
2018-05-14T00:37:18.660Z,17.70
2018-05-14T00:38:25.599Z,17.80
2018-05-14T00:39:32.748Z,17.80
2018-05-14T00:40:39.666Z,18.40
2018-05-14T00:41:46.736Z,18.20
2018-05-14T00:42:53.489Z,17.60
2018-05-14T00:44:00.540Z,18.50
2018-05-14T00:45:08.560Z,18.30
2018-05-14T00:46:14.511Z,17.80
2018-05-14T00:47:21.636Z,17.90
2018-05-14T00:48:28.645Z,17.50
2018-05-14T00:49:35.697Z,18.40
2018-05-14T00:50:42.541Z,17.60
2018-05-14T00:51:49.314Z,18.10
2018-05-14T00:52:56.144Z,17.80
2018-05-14T00:54:03.043Z,17.50
2018-05-14T00:55:09.943Z,19.00
2018-05-14T00:56:16.985Z,17.20
2018-05-14T00:57:23.751Z,16.90
2018-05-14T00:58:30.608Z,17.50
2018-05-14T00:59:37.642Z,16.70
2018-05-14T01:00:44.528Z,17.10
2018-05-14T01:01:51.447Z,16.10
2018-05-14T01:02:58.235Z,17.20
2018-05-14T01:04:04.993Z,16.00
2018-05-14T01:05:11.747Z,16.10
2018-05-14T01:06:19.144Z,17.30
2018-05-14T01:07:25.483Z,15.70
2018-05-14T01:08:32.387Z,15.50
2018-05-14T01:09:39.273Z,16.10
2018-05-14T01:10:46.249Z,15.60
2018-05-14T01:11:53.120Z,16.40
2018-05-14T01:13:00.043Z,15.90
2018-05-14T01:14:06.864Z,16.00
2018-05-14T01:15:13.738Z,15.00
2018-05-14T01:16:20.692Z,15.10
2018-05-14T01:17:27.455Z,15.90
2018-05-14T01:18:34.534Z,15.50
2018-05-14T01:19:41.316Z,15.50
2018-05-14T01:20:48.107Z,14.50
2018-05-14T01:21:54.873Z,15.20
2018-05-14T01:23:01.711Z,15.30
2018-05-14T01:24:08.532Z,15.30
2018-05-14T01:25:15.405Z,15.20
2018-05-14T01:26:22.208Z,15.40
2018-05-14T01:27:29.004Z,14.90
2018-05-14T01:28:35.831Z,14.50
2018-05-14T01:29:42.661Z,14.60
2018-05-14T01:30:49.545Z,14.00
2018-05-14T01:31:56.328Z,14.90
2018-05-14T01:33:03.324Z,14.60
2018-05-14T01:34:10.370Z,16.20
2018-05-14T01:35:18.240Z,14.80
2018-05-14T01:36:24.336Z,14.80
2018-05-14T01:37:31.139Z,14.60
2018-05-14T01:38:37.940Z,15.10
2018-05-14T01:39:44.731Z,14.60
2018-05-14T01:40:51.605Z,15.50
2018-05-14T01:41:58.603Z,15.40
2018-05-14T01:43:05.475Z,15.80
2018-05-14T01:44:12.259Z,15.50
2018-05-14T01:45:19.361Z,14.90
2018-05-14T01:46:25.867Z,15.50
2018-05-14T01:47:32.660Z,16.20
2018-05-14T01:48:39.490Z,15.10
2018-05-14T01:49:46.279Z,15.90
2018-05-14T01:50:54.532Z,16.10
2018-05-14T01:52:00.151Z,16.00
2018-05-14T01:53:06.979Z,16.60
2018-05-14T01:54:13.840Z,15.40
2018-05-14T01:55:20.652Z,16.20
2018-05-14T01:56:27.516Z,16.80
2018-05-14T01:57:34.243Z,15.90
2018-05-14T01:58:41.076Z,15.60
2018-05-14T01:59:48.189Z,15.10
2018-05-14T02:00:55.079Z,16.20
2018-05-14T02:02:01.893Z,16.30
2018-05-14T02:03:08.957Z,17.00
2018-05-14T02:04:15.837Z,16.00
2018-05-14T02:05:22.619Z,16.30
2018-05-14T02:06:29.403Z,16.00
2018-05-14T02:07:36.198Z,17.70
2018-05-14T02:08:43.068Z,17.00
2018-05-14T02:09:49.916Z,16.20
2018-05-14T02:10:56.785Z,16.10
2018-05-14T02:12:03.608Z,17.60
2018-05-14T02:13:10.572Z,17.10
2018-05-14T02:14:17.457Z,17.00
2018-05-14T02:15:24.384Z,16.10
2018-05-14T02:16:31.396Z,17.60
2018-05-14T02:17:38.212Z,16.80
2018-05-14T02:18:45.082Z,17.00
2018-05-14T02:19:51.959Z,16.50
2018-05-14T02:20:58.915Z,15.70
2018-05-14T02:22:06.192Z,17.60
2018-05-14T02:23:12.444Z,18.00
2018-05-14T02:24:19.380Z,16.80
2018-05-14T02:25:26.363Z,16.00
2018-05-14T02:26:33.191Z,17.10
2018-05-14T02:27:40.054Z,16.30
2018-05-14T02:28:46.902Z,16.30
2018-05-14T02:29:53.805Z,17.30
2018-05-14T02:31:00.644Z,17.00
2018-05-14T02:32:07.625Z,18.20
2018-05-14T02:33:14.697Z,17.50
2018-05-14T02:34:21.579Z,16.80
2018-05-14T02:35:28.400Z,18.10
2018-05-14T02:36:36.296Z,17.50
2018-05-14T02:37:42.124Z,17.20
2018-05-14T02:38:51.341Z,16.80
2018-05-14T02:39:56.064Z,17.20
2018-05-14T02:41:02.919Z,16.10
2018-05-14T02:42:09.819Z,16.40
2018-05-14T02:43:16.813Z,16.90
2018-05-14T02:44:23.616Z,15.60
2018-05-14T02:45:30.414Z,16.40
2018-05-14T02:46:37.430Z,15.80
2018-05-14T02:47:44.905Z,16.20
2018-05-14T02:48:51.009Z,16.00
2018-05-14T02:49:58.808Z,17.30
2018-05-14T02:51:08.651Z,16.20
2018-05-14T02:52:11.764Z,16.80
2018-05-14T02:53:18.740Z,16.40
2018-05-14T02:54:25.448Z,15.30
2018-05-14T02:55:32.279Z,16.80
2018-05-14T02:56:39.269Z,17.20
2018-05-14T02:57:45.941Z,15.60
2018-05-14T02:58:52.982Z,15.50
2018-05-14T02:59:59.875Z,15.70
2018-05-14T03:01:07.573Z,16.00
2018-05-14T03:02:13.653Z,16.80
2018-05-14T03:03:20.675Z,15.40
2018-05-14T03:04:27.495Z,15.80
2018-05-14T03:05:34.665Z,16.10
2018-05-14T03:06:41.253Z,15.60
2018-05-14T03:07:48.108Z,16.70
2018-05-14T03:08:55.272Z,15.90
2018-05-14T03:10:03.623Z,16.00
2018-05-14T03:11:09.260Z,15.90
2018-05-14T03:12:17.160Z,15.40
2018-05-14T03:13:23.319Z,16.60
2018-05-14T03:14:29.882Z,15.50
2018-05-14T03:15:38.113Z,15.30
2018-05-14T03:16:44.052Z,15.20
2018-05-14T03:17:51.022Z,15.40
2018-05-14T03:18:57.810Z,15.30
2018-05-14T03:20:04.599Z,16.40
2018-05-14T03:22:18.127Z,15.00
2018-05-14T03:23:24.984Z,15.90
2018-05-14T03:24:31.784Z,16.40
2018-05-14T03:25:38.589Z,16.70
2018-05-14T03:26:45.471Z,15.10
2018-05-14T03:27:52.287Z,14.90
2018-05-14T03:28:59.077Z,15.80
2018-05-14T03:30:06.631Z,16.10
2018-05-14T03:31:13.199Z,15.80
2018-05-14T03:32:19.836Z,15.90
2018-05-14T03:33:26.601Z,16.40
2018-05-14T03:34:33.343Z,16.20
2018-05-14T03:35:40.188Z,16.20
2018-05-14T03:36:47.464Z,15.40
2018-05-14T03:37:54.222Z,15.60
2018-05-14T03:39:01.322Z,16.00
2018-05-14T03:40:10.429Z,16.30
2018-05-14T03:41:15.107Z,15.80
2018-05-14T03:43:29.806Z,15.80
2018-05-14T03:44:36.037Z,15.80
2018-05-14T03:45:53.149Z,16.60
2018-05-14T03:46:50.815Z,16.20
2018-05-14T03:47:57.047Z,16.60
2018-05-14T03:50:10.981Z,17.40
2018-05-14T03:51:22.829Z,16.90
2018-05-14T03:52:25.171Z,16.80
2018-05-14T03:53:31.804Z,16.10
2018-05-14T03:54:38.678Z,17.00
2018-05-14T03:55:45.816Z,16.60
2018-05-14T03:56:52.629Z,16.10
2018-05-14T03:59:06.533Z,17.20
2018-05-14T04:00:16.499Z,16.90
2018-05-14T04:01:23.600Z,16.90
2018-05-14T04:02:30.528Z,16.20
2018-05-14T04:03:40.256Z,17.40
2018-05-14T04:04:50.489Z,16.70
2018-05-14T04:05:58.768Z,17.40
2018-05-14T04:07:04.388Z,16.90
2018-05-14T04:08:11.323Z,17.00
2018-05-14T04:10:25.316Z,16.70
2018-05-14T04:11:33.635Z,16.70
2018-05-14T04:12:39.306Z,17.40
2018-05-14T04:13:49.760Z,16.90
2018-05-14T04:14:56.520Z,18.40
2018-05-14T04:16:00.052Z,17.00
2018-05-14T04:17:06.864Z,17.80
2018-05-14T04:18:13.968Z,17.40
2018-05-14T04:19:20.819Z,17.60
2018-05-14T04:20:28.625Z,16.90
2018-05-14T04:21:35.216Z,18.20
2018-05-14T04:22:42.126Z,18.10
2018-05-14T04:23:51.956Z,17.60
2018-05-14T04:24:56.023Z,16.80
2018-05-14T04:26:03.007Z,17.70
2018-05-14T04:27:15.013Z,18.00
2018-05-14T04:28:16.978Z,21.50
2018-05-14T04:29:23.751Z,22.60
2018-05-14T04:30:30.588Z,20.20
2018-05-14T04:31:37.482Z,19.60
2018-05-14T04:32:44.399Z,18.50
2018-05-14T04:33:51.219Z,18.40
2018-05-14T04:36:08.836Z,18.20
2018-05-14T04:37:18.690Z,20.20
2018-05-14T04:38:18.908Z,19.30
2018-05-14T04:39:26.103Z,18.80
2018-05-14T04:40:32.820Z,19.90
2018-05-14T04:41:39.956Z,17.90
2018-05-14T04:42:47.005Z,18.30
2018-05-14T04:43:54.072Z,17.60
2018-05-14T04:45:00.830Z,18.00
2018-05-14T04:46:07.675Z,18.40
2018-05-14T04:47:14.516Z,18.10
2018-05-14T04:48:24.972Z,18.60
2018-05-14T04:49:29.836Z,18.40
2018-05-14T04:50:35.364Z,18.00
2018-05-14T04:51:42.434Z,18.50
2018-05-14T04:53:58.907Z,17.90
2018-05-14T04:56:09.911Z,17.70
2018-05-14T04:57:19.937Z,18.60
2018-05-14T04:58:23.844Z,18.10
2018-05-14T04:59:30.737Z,19.50
2018-05-14T05:00:37.796Z,18.20
2018-05-14T05:01:44.788Z,18.00
2018-05-14T05:02:56.669Z,19.70
2018-05-14T05:03:58.715Z,18.50
2018-05-14T05:05:05.749Z,18.20
2018-05-14T05:06:12.793Z,18.60
2018-05-14T05:07:19.679Z,18.00
2018-05-14T05:08:26.684Z,17.10
2018-05-14T05:09:33.231Z,18.60
2018-05-14T05:10:40.896Z,18.30
2018-05-14T05:11:46.932Z,17.90
2018-05-14T05:12:54.024Z,17.00
2018-05-14T05:14:00.813Z,17.80
2018-05-14T05:15:08.504Z,18.40
2018-05-14T05:16:14.468Z,18.00
2018-05-14T05:17:22.406Z,18.40
2018-05-14T05:18:29.796Z,18.20
2018-05-14T05:19:35.421Z,19.50
2018-05-14T05:20:42.423Z,18.90
2018-05-14T05:21:49.391Z,19.10
2018-05-14T05:22:56.289Z,18.70
2018-05-14T05:24:03.160Z,17.50
2018-05-14T05:25:10.568Z,18.10
2018-05-14T05:26:16.696Z,19.50
2018-05-14T05:27:23.717Z,18.60
2018-05-14T05:28:31.828Z,18.60
2018-05-14T05:30:44.884Z,18.90
2018-05-14T05:31:54.846Z,18.80
2018-05-14T05:32:58.734Z,18.40
2018-05-14T05:34:06.448Z,18.00
2018-05-14T05:35:12.416Z,18.20
2018-05-14T05:36:19.229Z,18.00
2018-05-14T05:37:26.007Z,18.00
2018-05-14T05:38:32.619Z,18.00
2018-05-14T05:39:39.371Z,18.20
2018-05-14T05:40:46.389Z,18.20
2018-05-14T05:41:53.352Z,18.10
2018-05-14T05:43:00.239Z,18.70
2018-05-14T05:44:07.243Z,17.30
2018-05-14T05:45:13.879Z,18.10
2018-05-14T05:46:20.796Z,18.10
2018-05-14T05:47:28.096Z,18.10
2018-05-14T05:48:35.177Z,18.30
2018-05-14T05:49:42.083Z,16.60
2018-05-14T05:50:48.744Z,17.70
2018-05-14T05:51:57.153Z,19.80
2018-05-14T05:53:02.955Z,18.60
2018-05-14T05:54:09.767Z,19.40
2018-05-14T05:55:20.699Z,19.20
2018-05-14T05:56:23.348Z,19.00
2018-05-14T05:57:30.135Z,20.50
2018-05-14T05:58:36.976Z,19.40
2018-05-14T05:59:43.832Z,20.40
2018-05-14T06:00:50.755Z,20.10
2018-05-14T06:02:00.275Z,20.50
2018-05-14T06:03:04.746Z,19.90
2018-05-14T06:04:11.657Z,21.70
2018-05-14T06:05:18.447Z,19.90
2018-05-14T06:06:25.573Z,17.90
2018-05-14T06:07:32.480Z,17.00
2018-05-14T06:08:39.251Z,19.00
2018-05-14T06:09:45.937Z,17.00
2018-05-14T06:10:52.873Z,16.60
2018-05-14T06:12:00.687Z,16.40
2018-05-14T06:13:06.315Z,15.60
2018-05-14T06:14:13.104Z,16.70
2018-05-14T06:15:20.066Z,16.10
2018-05-14T06:16:29.025Z,16.30
2018-05-14T06:17:33.512Z,14.70
2018-05-14T06:18:40.492Z,15.50
2018-05-14T06:19:47.444Z,16.80
2018-05-14T06:20:54.290Z,16.70
2018-05-14T06:22:01.105Z,19.40
2018-05-14T06:23:07.911Z,18.40
2018-05-14T06:24:14.843Z,18.90
2018-05-14T06:25:21.396Z,17.60
2018-05-14T06:26:28.201Z,18.70
2018-05-14T06:27:35.203Z,16.90
2018-05-14T06:28:41.908Z,18.20
2018-05-14T06:29:48.779Z,19.00
2018-05-14T06:30:55.757Z,16.90
2018-05-14T06:32:02.851Z,16.10
2018-05-14T06:33:09.848Z,16.70
2018-05-14T06:34:16.924Z,16.60
2018-05-14T06:35:23.663Z,16.50
2018-05-14T06:36:30.438Z,15.80
2018-05-14T06:37:37.245Z,15.60
2018-05-14T06:38:44.016Z,16.30
2018-05-14T06:39:50.808Z,15.20
2018-05-14T06:40:57.634Z,16.40
2018-05-14T06:42:04.465Z,16.30
2018-05-14T06:43:11.288Z,15.30
2018-05-14T06:44:18.132Z,16.40
2018-05-14T06:45:24.906Z,15.20
2018-05-14T06:46:31.697Z,16.00
2018-05-14T06:47:38.481Z,16.40
2018-05-14T06:48:45.298Z,15.50
2018-05-14T06:49:52.171Z,15.10
2018-05-14T06:50:58.888Z,15.20
2018-05-14T06:52:05.728Z,15.00
2018-05-14T06:53:12.516Z,14.50
2018-05-14T06:54:19.347Z,14.70
2018-05-14T06:55:26.142Z,14.60
2018-05-14T06:56:33.001Z,15.50
2018-05-14T06:57:39.888Z,15.50
2018-05-14T06:58:46.663Z,15.50
2018-05-14T06:59:53.446Z,14.20
2018-05-14T07:01:00.265Z,15.50
2018-05-14T07:02:07.080Z,14.80
2018-05-14T07:03:13.952Z,15.90
2018-05-14T07:04:20.713Z,14.30
2018-05-14T07:05:27.537Z,15.00
2018-05-14T07:06:34.466Z,14.80
2018-05-14T07:07:41.312Z,15.10
2018-05-14T07:08:48.137Z,16.20
2018-05-14T07:09:54.956Z,14.60
2018-05-14T07:11:01.812Z,16.10
2018-05-14T07:12:08.694Z,15.70
2018-05-14T07:13:15.464Z,15.30
2018-05-14T07:14:22.267Z,14.60
2018-05-14T07:15:29.076Z,15.20
2018-05-14T07:16:35.881Z,15.40
2018-05-14T07:17:42.693Z,14.30
2018-05-14T07:18:49.555Z,14.70
2018-05-14T07:19:56.447Z,14.50
2018-05-14T07:21:03.347Z,14.40
2018-05-14T07:22:10.188Z,14.80
2018-05-14T07:23:17.086Z,14.80
2018-05-14T07:24:24.040Z,13.90
2018-05-14T07:25:30.805Z,14.50
2018-05-14T07:26:37.664Z,14.60
2018-05-14T07:27:44.471Z,14.70
2018-05-14T07:28:52.103Z,14.30
2018-05-14T07:29:58.240Z,15.00
2018-05-14T07:31:05.055Z,15.00
2018-05-14T07:32:11.966Z,15.10
2018-05-14T07:33:18.601Z,14.90
2018-05-14T07:34:25.492Z,14.50
2018-05-14T07:35:32.484Z,15.00
2018-05-14T07:36:39.273Z,14.40
2018-05-14T07:37:46.113Z,14.40
2018-05-14T07:38:53.024Z,14.40
2018-05-14T07:40:00.181Z,14.70
2018-05-14T07:41:06.955Z,14.70
2018-05-14T07:42:13.880Z,14.10
2018-05-14T07:43:20.683Z,15.00
2018-05-14T07:44:27.486Z,14.60
2018-05-14T07:45:34.294Z,15.80
2018-05-14T07:46:41.280Z,14.70
2018-05-14T07:47:48.150Z,16.20
2018-05-14T07:48:55.427Z,14.10
2018-05-14T07:50:02.336Z,15.90
2018-05-14T07:51:09.268Z,16.00
2018-05-14T07:52:16.250Z,16.10
2018-05-14T07:53:23.028Z,15.50
2018-05-14T07:54:29.964Z,16.40
2018-05-14T07:55:36.817Z,15.70
2018-05-14T07:56:44.060Z,15.50
2018-05-14T07:57:50.929Z,16.50
2018-05-14T07:58:57.711Z,16.30
2018-05-14T08:00:04.547Z,15.20
2018-05-14T08:01:11.665Z,16.40
2018-05-14T08:02:18.498Z,16.50
2018-05-14T08:03:25.419Z,15.50
2018-05-14T08:04:32.216Z,16.00
2018-05-14T08:05:39.104Z,16.60
2018-05-14T08:06:46.031Z,16.70
2018-05-14T08:07:53.031Z,16.50
2018-05-14T08:08:59.884Z,17.90
2018-05-14T08:10:06.765Z,17.10
2018-05-14T08:11:13.612Z,16.90
2018-05-14T08:12:22.074Z,17.90
2018-05-14T08:13:27.573Z,16.40
2018-05-14T08:14:34.400Z,16.00
2018-05-14T08:15:41.205Z,16.60
2018-05-14T08:16:48.136Z,17.20
2018-05-14T08:17:54.997Z,17.00
2018-05-14T08:19:01.797Z,17.00
2018-05-14T08:20:08.701Z,17.60
2018-05-14T08:21:16.584Z,17.30
2018-05-14T08:22:22.560Z,18.10
2018-05-14T08:23:29.675Z,17.90
2018-05-14T08:24:36.465Z,16.40
2018-05-14T08:25:43.360Z,18.20
2018-05-14T08:26:50.224Z,17.40
2018-05-14T08:27:57.079Z,17.70
2018-05-14T08:29:03.878Z,17.80
2018-05-14T08:30:11.847Z,18.00
2018-05-14T08:31:17.796Z,17.70
2018-05-14T08:32:24.770Z,18.40
2018-05-14T08:33:31.391Z,17.40
2018-05-14T08:34:38.238Z,18.70
2018-05-14T08:35:50.165Z,17.30
2018-05-14T08:36:52.028Z,19.80
2018-05-14T08:37:58.881Z,21.40
2018-05-14T08:39:05.665Z,19.60
2018-05-14T08:40:12.471Z,18.50
2018-05-14T08:41:19.268Z,18.30
2018-05-14T08:42:26.119Z,19.30
2018-05-14T08:43:32.916Z,19.30
2018-05-14T08:44:40.837Z,19.40
2018-05-14T08:45:46.834Z,18.90
2018-05-14T08:46:53.559Z,18.40
2018-05-14T08:48:00.514Z,18.10
2018-05-14T08:49:07.427Z,18.50
2018-05-14T08:50:14.250Z,19.30
2018-05-14T08:51:21.128Z,17.80
2018-05-14T08:52:28.240Z,18.10
2018-05-14T08:53:35.152Z,19.50
2018-05-14T08:54:41.944Z,19.80
2018-05-14T08:55:48.840Z,18.60
2018-05-14T08:56:55.777Z,18.90
2018-05-14T08:58:03.028Z,19.10
2018-05-14T08:59:09.888Z,20.00
2018-05-14T09:00:16.835Z,19.10
2018-05-14T09:01:23.655Z,20.50
2018-05-14T09:02:30.548Z,21.50
2018-05-14T09:03:37.464Z,20.40
2018-05-14T09:04:44.254Z,20.00
2018-05-14T09:05:51.159Z,21.10
2018-05-14T09:06:57.926Z,21.90
2018-05-14T09:08:04.749Z,21.10
2018-05-14T09:09:12.395Z,21.00
2018-05-14T09:10:18.818Z,19.50
2018-05-14T09:11:29.101Z,20.30
2018-05-14T09:12:32.530Z,21.00
2018-05-14T09:13:39.654Z,20.60
2018-05-14T09:14:46.647Z,22.00
2018-05-14T09:15:53.535Z,22.70
2018-05-14T09:17:00.349Z,19.70
2018-05-14T09:18:07.966Z,20.80
2018-05-14T09:19:14.345Z,21.80
2018-05-14T09:20:21.190Z,23.30
2018-05-14T09:21:28.121Z,23.00
2018-05-14T09:22:35.066Z,22.40
2018-05-14T09:23:41.864Z,22.00
2018-05-14T09:24:48.675Z,21.30
2018-05-14T09:25:55.951Z,21.50
2018-05-14T09:28:09.865Z,21.30
2018-05-14T09:29:16.863Z,23.80
2018-05-14T09:30:23.716Z,22.60
2018-05-14T09:31:30.570Z,22.00
2018-05-14T09:32:37.500Z,23.00
2018-05-14T09:33:44.428Z,23.30
2018-05-14T09:34:51.133Z,23.50
2018-05-14T09:35:57.963Z,22.80
2018-05-14T09:37:04.813Z,23.70
2018-05-14T09:38:11.850Z,24.00
2018-05-14T09:39:18.895Z,23.50
2018-05-14T09:40:25.162Z,24.60
2018-05-14T09:41:32.094Z,22.10
2018-05-14T09:42:38.920Z,22.80
2018-05-14T09:43:45.851Z,24.60
2018-05-14T09:44:52.685Z,24.10
2018-05-14T09:45:59.812Z,23.50
2018-05-14T09:47:06.651Z,23.00
2018-05-14T09:48:16.932Z,23.80
2018-05-14T09:49:20.372Z,23.60
2018-05-14T09:50:27.247Z,22.60
2018-05-14T09:51:34.152Z,22.90
2018-05-14T09:52:41.359Z,23.70
2018-05-14T09:53:47.872Z,22.50
2018-05-14T09:54:54.761Z,22.50
2018-05-14T09:56:01.664Z,22.70
2018-05-14T09:57:08.585Z,21.30
2018-05-14T09:58:18.985Z,22.00
2018-05-14T09:59:22.578Z,22.40
2018-05-14T10:00:29.998Z,22.20
2018-05-14T10:01:36.433Z,25.30
2018-05-14T10:02:43.293Z,23.60
2018-05-14T10:03:50.198Z,25.20
2018-05-14T10:04:57.033Z,24.00
2018-05-14T10:06:03.812Z,23.90
2018-05-14T10:07:17.001Z,23.40
2018-05-14T10:08:17.695Z,24.50
2018-05-14T10:09:24.648Z,23.50
2018-05-14T10:10:32.252Z,23.90
2018-05-14T10:11:38.355Z,23.80
2018-05-14T10:12:45.981Z,24.90
2018-05-14T10:13:53.234Z,24.30
2018-05-14T10:14:59.480Z,25.20
2018-05-14T10:16:06.240Z,22.70
2018-05-14T10:17:13.651Z,22.30
2018-05-14T10:18:21.484Z,23.10
2018-05-14T10:19:27.437Z,22.90
2018-05-14T10:20:38.332Z,24.10
2018-05-14T10:21:41.059Z,23.00
2018-05-14T10:22:47.572Z,22.70
2018-05-14T10:23:54.468Z,22.50
2018-05-14T10:25:01.639Z,22.60
2018-05-14T10:26:08.013Z,22.60
2018-05-14T10:27:15.890Z,21.90
2018-05-14T10:28:21.911Z,23.60
2018-05-14T10:30:36.389Z,25.30
2018-05-14T10:31:44.530Z,23.50
2018-05-14T10:32:49.108Z,24.90
2018-05-14T10:33:56.680Z,24.70
2018-05-14T10:36:13.061Z,22.30
2018-05-14T10:37:17.928Z,24.00
2018-05-14T10:38:24.497Z,23.00
2018-05-14T10:39:30.718Z,24.70
2018-05-14T10:40:37.343Z,22.10
2018-05-14T10:41:44.456Z,22.30
2018-05-14T10:42:51.229Z,22.30
2018-05-14T10:43:59.329Z,22.20
2018-05-14T10:45:04.839Z,24.30
2018-05-14T10:46:14.338Z,25.20
2018-05-14T10:47:18.706Z,24.90
2018-05-14T10:48:27.154Z,25.10
2018-05-14T10:49:35.767Z,23.90
2018-05-14T10:50:45.126Z,26.50
2018-05-14T10:51:50.914Z,26.40
2018-05-14T10:52:57.421Z,25.10
2018-05-14T10:54:01.172Z,24.70
2018-05-14T10:55:11.331Z,22.70
2018-05-14T10:56:14.570Z,24.30
2018-05-14T10:57:22.743Z,25.40
2018-05-14T10:59:35.032Z,25.40
2018-05-14T11:00:47.666Z,25.80
2018-05-14T11:01:49.443Z,24.10
2018-05-14T11:02:56.391Z,27.00
2018-05-14T11:04:03.068Z,25.70
2018-05-14T11:05:09.840Z,26.10
2018-05-14T11:06:17.265Z,24.90
2018-05-14T11:07:24.082Z,23.70
2018-05-14T11:08:30.431Z,24.30
2018-05-14T11:09:37.359Z,25.40
2018-05-14T11:10:44.175Z,24.60
2018-05-14T11:11:51.029Z,24.00
2018-05-14T11:12:58.777Z,25.60
2018-05-14T11:14:04.711Z,25.10
2018-05-14T11:15:11.753Z,24.10
2018-05-14T11:16:18.215Z,24.60
2018-05-14T11:17:25.168Z,24.80
2018-05-14T11:18:33.940Z,26.50
2018-05-14T11:19:38.882Z,26.40
2018-05-14T11:20:46.028Z,25.30
2018-05-14T11:21:52.910Z,27.10
2018-05-14T11:22:59.796Z,26.20
2018-05-14T11:24:06.826Z,26.70
2018-05-14T11:25:13.719Z,26.30
2018-05-14T11:26:20.687Z,25.20
2018-05-14T11:27:27.700Z,25.50
2018-05-14T11:28:34.643Z,25.20
2018-05-14T11:29:41.481Z,25.60
2018-05-14T11:30:48.328Z,25.20
2018-05-14T11:31:55.232Z,25.20
2018-05-14T11:33:02.075Z,26.20
2018-05-14T11:34:09.012Z,29.10
2018-05-14T11:35:16.834Z,26.70
2018-05-14T11:36:23.313Z,28.20
2018-05-14T11:37:29.607Z,27.50
2018-05-14T11:38:40.163Z,27.90
2018-05-14T11:40:50.703Z,27.20
2018-05-14T11:41:57.728Z,25.90
2018-05-14T11:43:05.970Z,25.10
2018-05-14T11:44:18.499Z,25.70
2018-05-14T11:45:18.447Z,26.30
2018-05-14T11:46:25.511Z,27.20
2018-05-14T11:47:32.337Z,27.60
2018-05-14T11:48:39.404Z,27.50
2018-05-14T11:49:46.700Z,27.40
2018-05-14T11:50:53.636Z,28.70
2018-05-14T11:52:00.578Z,28.90
2018-05-14T11:53:07.336Z,26.60
2018-05-14T11:54:14.248Z,28.50
2018-05-14T11:55:21.053Z,28.50
2018-05-14T11:56:27.881Z,28.00
2018-05-14T11:57:34.748Z,28.60
2018-05-14T11:58:41.675Z,28.50
2018-05-14T11:59:48.631Z,29.80
2018-05-14T12:00:57.656Z,30.30
2018-05-14T12:02:02.470Z,27.10
2018-05-14T12:03:09.755Z,26.80
2018-05-14T12:04:17.616Z,27.50
2018-05-14T12:05:23.411Z,27.50
2018-05-14T12:06:31.725Z,27.90
2018-05-14T12:07:37.181Z,28.00
2018-05-14T12:08:44.116Z,28.00
2018-05-14T12:09:51.052Z,29.50
2018-05-14T12:10:57.925Z,30.10
2018-05-14T12:12:04.825Z,28.00
2018-05-14T12:13:11.666Z,26.00
2018-05-14T12:14:18.543Z,25.40
2018-05-14T12:15:25.373Z,26.20
2018-05-14T12:16:32.230Z,26.70
2018-05-14T12:17:39.128Z,26.70
2018-05-14T12:18:46.126Z,26.70
2018-05-14T12:19:52.743Z,27.60
2018-05-14T12:20:59.447Z,27.40
2018-05-14T12:22:06.418Z,28.60
2018-05-14T12:23:13.272Z,27.60
2018-05-14T12:24:20.367Z,28.70
2018-05-14T12:25:27.214Z,29.40
2018-05-14T12:26:34.038Z,29.10
2018-05-14T12:27:40.899Z,27.00
2018-05-14T12:28:47.759Z,29.40
2018-05-14T12:29:54.547Z,28.40
2018-05-14T12:31:01.386Z,29.40
2018-05-14T12:32:08.286Z,30.70
2018-05-14T12:33:15.004Z,29.00
2018-05-14T12:34:21.850Z,28.70
2018-05-14T12:35:28.689Z,29.50
2018-05-14T12:36:35.520Z,29.80
2018-05-14T12:37:42.331Z,28.10
2018-05-14T12:38:49.161Z,30.40
2018-05-14T12:39:56.091Z,27.70
2018-05-14T12:41:02.911Z,26.70
2018-05-14T12:42:09.879Z,26.70
2018-05-14T12:43:17.000Z,26.80
2018-05-14T12:44:23.377Z,27.90
2018-05-14T12:45:31.637Z,27.10
2018-05-14T12:46:37.100Z,27.90
2018-05-14T12:47:44.116Z,27.00
2018-05-14T12:48:50.993Z,28.20
2018-05-14T12:49:57.879Z,27.90
2018-05-14T12:51:08.410Z,26.60
2018-05-14T12:52:12.809Z,29.40
2018-05-14T12:53:18.603Z,25.60
2018-05-14T12:54:25.462Z,26.90
2018-05-14T12:55:32.343Z,26.40
2018-05-14T12:56:39.277Z,27.30
2018-05-14T12:57:46.316Z,26.10
2018-05-14T12:58:53.088Z,27.30
2018-05-14T12:59:59.908Z,27.40
2018-05-14T13:01:06.826Z,27.20
2018-05-14T13:02:13.660Z,26.20
2018-05-14T13:03:20.742Z,28.50
2018-05-14T13:04:27.562Z,27.00
2018-05-14T13:05:34.412Z,27.40
2018-05-14T13:06:41.344Z,28.60
2018-05-14T13:07:48.140Z,26.30
2018-05-14T13:08:54.954Z,28.10
2018-05-14T13:10:01.789Z,28.00
2018-05-14T13:11:08.675Z,27.60
2018-05-14T13:12:15.962Z,27.20
2018-05-14T13:13:22.263Z,29.60
2018-05-14T13:14:29.214Z,30.00
2018-05-14T13:15:36.022Z,29.70
2018-05-14T13:16:42.816Z,30.00
2018-05-14T13:17:49.444Z,29.00
2018-05-14T13:18:56.219Z,28.80
2018-05-14T13:20:03.012Z,27.40
2018-05-14T13:21:09.837Z,27.40
2018-05-14T13:22:16.677Z,28.80
2018-05-14T13:23:23.712Z,27.00
2018-05-14T13:24:30.610Z,26.60
2018-05-14T13:25:38.535Z,26.40
2018-05-14T13:26:44.524Z,25.70
2018-05-14T13:27:51.554Z,24.40
2018-05-14T13:28:58.584Z,23.00
2018-05-14T13:30:05.566Z,23.10
2018-05-14T13:31:12.536Z,23.60
2018-05-14T13:32:19.556Z,25.50
2018-05-14T13:33:26.514Z,23.30
2018-05-14T13:34:33.510Z,22.80
2018-05-14T13:35:40.467Z,24.90
2018-05-14T13:36:47.343Z,23.30
2018-05-14T13:37:54.399Z,24.40
2018-05-14T13:39:00.779Z,25.60
2018-05-14T13:40:07.544Z,24.10
2018-05-14T13:41:14.392Z,24.70
2018-05-14T13:42:21.199Z,26.10
2018-05-14T13:43:28.029Z,25.10
2018-05-14T13:44:35.099Z,26.40
2018-05-14T13:45:42.283Z,25.70
2018-05-14T13:46:49.149Z,25.30
2018-05-14T13:47:55.896Z,27.30
2018-05-14T13:49:02.925Z,24.60
2018-05-14T13:50:09.635Z,26.40
2018-05-14T13:51:18.154Z,25.00
2018-05-14T13:52:23.456Z,25.20
2018-05-14T13:53:30.277Z,24.10
2018-05-14T13:54:37.134Z,26.50
2018-05-14T13:55:44.051Z,24.10
2018-05-14T13:56:50.974Z,25.80
2018-05-14T13:57:57.977Z,22.70
2018-05-14T13:59:05.411Z,23.10
2018-05-14T14:00:12.197Z,22.50
2018-05-14T14:01:19.241Z,20.90
2018-05-14T14:02:26.222Z,18.80
2018-05-14T14:03:33.041Z,19.60
2018-05-14T14:04:40.184Z,18.50
2018-05-14T14:05:49.061Z,18.70
2018-05-14T14:06:53.887Z,20.90
2018-05-14T14:08:00.907Z,22.20
2018-05-14T14:09:07.750Z,21.20
2018-05-14T14:10:14.815Z,21.60
2018-05-14T14:11:21.796Z,21.90
2018-05-14T14:12:28.360Z,21.30
2018-05-14T14:13:35.216Z,20.90
2018-05-14T14:14:42.505Z,21.10
2018-05-14T14:15:49.069Z,21.20
2018-05-14T14:16:55.870Z,23.10
2018-05-14T14:18:02.806Z,22.80
2018-05-14T14:19:09.925Z,20.90
2018-05-14T14:20:17.064Z,22.30
2018-05-14T14:21:23.888Z,22.90
2018-05-14T14:22:31.150Z,22.90
2018-05-14T14:23:38.358Z,22.60
2018-05-14T14:24:45.425Z,22.00
2018-05-14T14:25:52.740Z,23.70
2018-05-14T14:26:59.599Z,24.60
2018-05-14T14:28:06.633Z,24.40
2018-05-14T14:29:13.472Z,23.90
2018-05-14T14:30:20.408Z,25.50
2018-05-14T14:31:27.416Z,27.30
2018-05-14T14:32:35.196Z,27.00
2018-05-14T14:33:41.222Z,26.70
2018-05-14T14:34:49.140Z,27.00
2018-05-14T14:35:55.076Z,26.70
2018-05-14T14:37:01.987Z,27.10